Historyczne dane pomiarowe

Dodano dane terminowe – wersja testowa.

Dane z okresu 1951-2019

Wersja bazy: 1.34 [2019-03-16, lista zmian], aktualizacja planowana na 2019-04-15

Dane meteo z obszaru Polski uzyskane na podstawie danych udostępnionych przez Instytut Meteorologii i Gospodarki Wodnej – Państwowy Instytut Badawczy.

 

Wybierz Datę:    

       

TemperaturaWilgotnośćWiatrCiśnienieOpadyŚniegCzas trwania zjawisk
 Stacja t tx tn tng RH VA  wxwx mslp ppp RRR   cm mm wxwxwxwxwxwxwx
1999-08-14 15.9 22.2 8.9 8.0 72.5- 1.7 1.7---- 3.4------------
1999-08-13 14.7 19.1 10.4 10.0 81.0- 4.3 2.7---- 0.6------------
1999-08-12 15.6 20.2 11.4 10.0 82.3- 5.7 3.3---- 0.0------------
1999-08-11 19.0 22.8 15.8 14.5 80.8- 3.3 1.7---- 0.0------------
1999-08-10 19.6 26.4 13.8 13.5 83.5- 5.7 2.3---- 0.0------------
1999-08-09 21.1 28.0 17.3 17.0 77.8- 2.7 2.3---- 1.6------------
1999-08-08 22.1 29.0 15.8 15.0 80.5- 4.0 3.0---- 0.6------------
1999-08-07 22.2 29.0 15.3 14.0 72.0- 2.3 1.7---- 3.6------------
1999-08-06 22.4 29.6 14.8 11.5 57.5- 4.3 1.0---- 0.0------------
1999-08-05 21.7 29.2 14.8 10.0 59.8- 1.7 1.3---- 0.0------------
1999-08-04 20.7 27.5 12.9 11.0 59.5- 2.7 1.3---- 0.0------------
1999-08-03 20.8 28.0 12.4 11.0 55.3- 1.7 1.7---- 0.0------------
1999-08-02 20.6 27.5 12.9 11.5 61.5- 1.3 2.7---- 0.0------------
1999-08-01 20.8 26.9 13.8 12.5 53.3- 2.0 5.7---- 0.0------------
1999-07-31 21.3 28.8 12.2 11.0 59.0- 1.7 6.7---- 0.0------------
1999-07-30 19.2 27.5 10.9 9.2 73.5- 2.0 4.3---- 0.0------------
1999-07-29 19.6 25.9 11.3 10.0 62.5- 2.3 4.0---- 0.0------------
1999-07-28 18.4 25.6 10.7 9.5 63.0- 3.7 8.3---- 0.0------------
1999-07-27 17.2 22.8 10.4 10.0 62.8- 3.7 2.3---- 0.0------------
1999-07-26 20.3 25.1 16.8 15.0 76.5- 4.0 5.7---- 0.0------------
1999-07-25 20.9 26.9 15.8 14.5 77.0- 5.7 2.3---- 0.0------------
1999-07-24 18.7 22.4 15.3 14.0 73.5- 4.7 2.3---- 0.0------------
1999-07-23 17.2 21.7 12.4 10.5 74.0- 4.0 5.0---- 0.0------------
1999-07-22 18.9 24.9 14.2 14.0 59.8- 5.0 4.0---- 0.0------------
1999-07-21 22.5 28.8 16.1 15.5 75.3- 3.7 4.0---- 0.0------------
1999-07-20 22.8 31.6 16.3 14.7 73.3- 3.7 3.7---- 0.7------------
1999-07-19 22.8 30.5 15.3 13.3 74.5- 3.7 1.3---- 0.0------------
1999-07-18 21.4 28.5 13.4 12.8 68.5- 2.0 2.3---- 0.0------------
1999-07-17 18.4 24.3 12.4 11.0 76.3- 6.0 2.3---- 0.0------------
1999-07-16 16.9 21.2 11.4 11.0 82.0- 4.0 1.0---- 2.6------------
1999-07-15 16.6 21.3 14.3 13.7 77.0- 5.3 3.0---- 8.9------------
1999-07-14 20.2 24.9 16.9 16.0 96.0- 7.0 1.3---- 13.8------------
1999-07-13 22.7 29.6 19.4 18.0 81.5- 5.3 5.7---- 3.7------------
1999-07-12 23.1 29.6 15.8 14.0 65.0- 3.0 5.3---- 0.0------------
1999-07-11 22.1 28.5 14.8 13.0 59.5- 0.3 5.7---- 0.0------------
1999-07-10 20.8 26.4 14.0 13.0 64.5- 1.3 9.3---- 0.0------------
1999-07-09 18.7 23.8 14.8 15.0 74.5- 2.3 11.0---- 0.0------------
1999-07-08 17.6 20.7 15.0 14.5 92.3- 7.7 3.3---- 9.1------------
1999-07-07 18.2 22.2 16.3 16.5 87.5- 6.3 1.7---- 0.6------------
1999-07-06 23.7 30.0 19.5 17.5 79.8- 4.3 6.0---- 0.0------------
1999-07-05 26.2 34.6 18.3 18.0 64.0- 1.7 6.7---- 0.0------------
1999-07-04 23.9 31.4 16.1 15.5 68.8- 4.0 2.0---- 0.0------------
1999-07-03 21.0 26.3 14.3 12.5 80.0- 3.0 4.7---- 0.0------------
1999-07-02 19.5 27.5 13.4 13.0 76.5- 3.7 2.3---- 0.0------------
1999-07-01 19.2 24.3 16.3 15.5 90.3- 5.3 1.0---- 1.1------------
1999-06-30 19.9 25.7 12.4 11.5 70.3- 2.3 2.0---- 0.0------------
1999-06-29 18.9 23.8 13.4 13.0 76.8- 2.7 2.0---- 0.0------------
1999-06-28 20.3 26.9 15.8 13.0 82.8- 4.0 3.7---- 1.5------------
1999-06-27 19.7 25.9 12.4 7.5 75.8- 3.0 6.7---- 0.6------------
1999-06-26 14.0 19.1 8.9 8.5 82.8- 3.0 3.7---- 0.0------------
1999-06-25 12.9 17.8 9.9 8.0 82.8- 6.0 4.7---- 9.2------------
1999-06-24 12.7 18.2 6.4 4.4 78.8- 3.7 1.7---- 0.0------------
1999-06-23 12.4 15.3 8.9 9.0 81.5- 4.7 6.0---- 0.0------------
1999-06-22 11.1 13.4 9.4 10.5 94.5- 8.0 8.3---- 11.6------------
1999-06-21 15.8 21.2 12.4 13.5 98.0- 6.0 4.3---- 3.7------------
1999-06-20 19.3 23.6 14.8 13.0 67.8- 3.3 4.0---- 0.0------------
1999-06-19 18.7 23.3 14.3 12.5 82.5- 4.3 1.7---- 0.1------------
1999-06-18 18.8 23.8 13.4 12.0 75.8- 2.7 2.3---- 0.0------------
1999-06-17 17.7 22.8 10.9 5.0 77.8- 4.3 1.3---- 0.0------------
1999-06-16 16.9 21.2 10.6 10.0 77.5- 4.7 2.0---- 0.0------------
366.0 ms

 

Źródłem pochodzenia danych jest Instytut Meteorologii i Gospodarki Wodnej – Państwowy Instytut Badawczy. Dane Instytutu Meteorologii i Gospodarki Wodnej – Państwowego Instytutu Badawczego zostały przetworzone.

Dane źródłowe można odnaleźć na stronie https://dane.imgw.pl